Погода Стьордалсхалсенна неделю

Нур-Трёнделаг, Норвегия

14 - 20 июля
  • 14июля
    Сегодня
    +16°
    +24°
    Облачно с прояснениями
    ВремяПогодаТемператураВлажностьДавлениеВетер, м/сВероятность осадков
    02:00Ясно и безоблачно+12°C92 %759 мм3.1 м/с2 %
    05:00Облачно с прояснениями+13°C91 %758 мм2.9 м/с2 %
    08:00Облачно с прояснениями+17°C76 %758 мм1.9 м/с2 %
    11:00Облачно с прояснениями+19°C58 %757 мм4.1 м/с2 %
    14:00Облачно с прояснениями+23°C43 %756 мм5.1 м/с12 %
    17:00Пасмурно, сплошная облачность+23°C55 %755 мм5.6 м/с42 %
    20:00Пасмурно, дождь+19°C97 %755 мм4.4 м/с67 %
    23:00Небольшая облачность, ливень+18°C93 %754 мм4.3 м/с67 %
  • 15июля
    Понедельник
    +13°
    +25°
    Облачно с прояснениями
    ВремяПогодаТемператураВлажностьДавлениеВетер, м/сВероятность осадков
    02:00Облачно с прояснениями+17°C92 %753 мм4.3 м/с33 %
    05:00Облачно с прояснениями+17°C94 %753 мм3.9 м/с12 %
    08:00Облачно с прояснениями+20°C84 %753 мм3.6 м/с6 %
    11:00Облачно с прояснениями+22°C57 %754 мм3.9 м/с10 %
    14:00Облачно с прояснениями+24°C45 %753 мм5.4 м/с6 %
    17:00Облачно с прояснениями+25°C46 %754 мм6.0 м/с5 %
    20:00Небольшая облачность+23°C60 %754 мм4.2 м/с5 %
    23:00Облачно с прояснениями+18°C92 %755 мм3.4 м/с2 %
  • 16июля
    Вторник
    +14°
    +24°
    Практически безоблачно
    ВремяПогодаТемператураВлажностьДавлениеВетер, м/сВероятность осадков
    02:00Практически безоблачно+15°C96 %756 мм3.3 м/с2 %
    05:00Облачно с прояснениями+13°C95 %757 мм2.7 м/с2 %
    08:00Небольшая облачность+16°C84 %757 мм1.8 м/с2 %
    11:00Ясно и безоблачно+20°C72 %757 мм2.6 м/с7 %
    14:00Практически безоблачно+22°C63 %757 мм2.8 м/с25 %
    17:00Практически безоблачно+23°C67 %756 мм4.2 м/с40 %
    20:00Практически безоблачно+22°C77 %757 мм3.4 м/с29 %
    23:00Ясно и безоблачно+18°C94 %757 мм2.8 м/с10 %
  • 17июля
    Среда
    +14°
    +24°
    Пасмурно, небольшой дождь
    ВремяПогодаТемператураВлажностьДавлениеВетер, м/сВероятность осадков
    02:00Небольшая облачность+16°C95 %757 мм3.6 м/с2 %
    05:00Практически безоблачно+15°C91 %757 мм3.2 м/с2 %
    08:00Практически безоблачно+18°C80 %757 мм2.2 м/с7 %
    11:00Облачно с прояснениями+23°C59 %757 мм3.2 м/с23 %
    14:00Пасмурно, небольшой дождь+23°C58 %757 мм3.1 м/с68 %
    17:00Пасмурно, ливень+19°C89 %757 мм3.3 м/с91 %
    20:00Пасмурно, ливень+19°C98 %758 мм3.6 м/с88 %
    23:00Пасмурно, ливень+17°C98 %758 мм2.4 м/с88 %
  • 18июля
    Четверг
    +13°
    +19°
    Пасмурно, небольшой дождь
    ВремяПогодаТемператураВлажностьДавлениеВетер, м/сВероятность осадков
    02:00Пасмурно, ливень+16°C99 %759 мм3.6 м/с89 %
    05:00Пасмурно, ливень+15°C100 %759 мм4.4 м/с91 %
    08:00Пасмурно, ливень+15°C97 %760 мм3.9 м/с96 %
    11:00Пасмурно, небольшой дождь+15°C93 %761 мм3.0 м/с96 %
    14:00Пасмурно, небольшой дождь+16°C87 %761 мм3.9 м/с89 %
    17:00Пасмурно, небольшой дождь+18°C78 %761 мм4.9 м/с82 %
    20:00Пасмурно, небольшой дождь+17°C85 %762 мм4.6 м/с55 %
    23:00Пасмурно, небольшой дождь+16°C91 %762 мм3.3 м/с38 %
Мы используем cookies
Соглашаюсь